sensor_id;sensor_type;location;lat;lon;timestamp;pressure;altitude;pressure_sealevel;temperature;humidity
7614;BME280;3848;42.016;23.098;2023-08-21T00:01:36;97299.00;;;23.43;100.00
7614;BME280;3848;42.016;23.098;2023-08-21T00:04:03;97299.84;;;23.43;100.00
7614;BME280;3848;42.016;23.098;2023-08-21T00:06:30;97291.56;;;23.37;100.00
7614;BME280;3848;42.016;23.098;2023-08-21T00:08:56;97298.53;;;23.36;100.00
7614;BME280;3848;42.016;23.098;2023-08-21T00:11:23;97243.44;;;23.01;100.00
7614;BME280;3848;42.016;23.098;2023-08-21T00:13:50;97304.72;;;23.34;100.00
7614;BME280;3848;42.016;23.098;2023-08-21T00:16:18;97308.56;;;23.27;100.00
7614;BME280;3848;42.016;23.098;2023-08-21T00:18:45;97306.31;;;23.21;100.00
7614;BME280;3848;42.016;23.098;2023-08-21T00:21:12;97307.41;;;23.17;100.00
7614;BME280;3848;42.016;23.098;2023-08-21T00:23:39;97317.13;;;23.13;100.00
7614;BME280;3848;42.016;23.098;2023-08-21T00:26:06;97314.75;;;23.08;100.00
7614;BME280;3848;42.016;23.098;2023-08-21T00:28:32;97314.19;;;23.03;100.00
7614;BME280;3848;42.016;23.098;2023-08-21T00:31:01;97311.59;;;23.03;100.00
7614;BME280;3848;42.016;23.098;2023-08-21T00:33:30;97302.22;;;22.85;100.00
7614;BME280;3848;42.016;23.098;2023-08-21T00:35:57;97319.72;;;22.97;100.00
7614;BME280;3848;42.016;23.098;2023-08-21T00:38:24;97308.34;;;22.84;100.00
7614;BME280;3848;42.016;23.098;2023-08-21T00:40:51;97319.28;;;22.89;100.00
7614;BME280;3848;42.016;23.098;2023-08-21T00:43:18;97315.09;;;22.87;100.00
7614;BME280;3848;42.016;23.098;2023-08-21T00:45:46;97320.53;;;22.82;100.00
7614;BME280;3848;42.016;23.098;2023-08-21T00:48:14;97319.00;;;22.78;100.00
7614;BME280;3848;42.016;23.098;2023-08-21T00:50:43;97322.78;;;22.72;100.00
7614;BME280;3848;42.016;23.098;2023-08-21T00:53:11;97328.97;;;22.70;100.00
7614;BME280;3848;42.016;23.098;2023-08-21T00:55:38;97318.91;;;22.64;100.00
7614;BME280;3848;42.016;23.098;2023-08-21T00:58:05;97322.41;;;22.63;100.00
7614;BME280;3848;42.016;23.098;2023-08-21T01:00:33;97329.94;;;22.67;100.00
7614;BME280;3848;42.016;23.098;2023-08-21T01:03:00;97331.84;;;22.64;100.00
7614;BME280;3848;42.016;23.098;2023-08-21T01:05:28;97325.94;;;22.62;100.00
7614;BME280;3848;42.016;23.098;2023-08-21T01:08:01;97319.91;;;22.61;100.00
7614;BME280;3848;42.016;23.098;2023-08-21T01:10:37;97326.69;;;22.64;100.00
7614;BME280;3848;42.016;23.098;2023-08-21T01:13:11;97316.41;;;22.62;100.00
7614;BME280;3848;42.016;23.098;2023-08-21T01:15:42;97313.56;;;22.51;100.00
7614;BME280;3848;42.016;23.098;2023-08-21T01:18:10;97272.88;;;22.20;100.00
7614;BME280;3848;42.016;23.098;2023-08-21T01:20:38;97334.50;;;22.46;100.00
7614;BME280;3848;42.016;23.098;2023-08-21T01:23:07;97342.75;;;22.37;100.00
7614;BME280;3848;42.016;23.098;2023-08-21T01:25:35;97342.91;;;22.34;100.00
7614;BME280;3848;42.016;23.098;2023-08-21T01:28:03;97316.13;;;22.18;100.00
7614;BME280;3848;42.016;23.098;2023-08-21T01:30:31;97326.09;;;22.26;100.00
7614;BME280;3848;42.016;23.098;2023-08-21T01:33:01;97341.34;;;22.32;100.00
7614;BME280;3848;42.016;23.098;2023-08-21T01:35:33;97339.03;;;22.26;100.00
7614;BME280;3848;42.016;23.098;2023-08-21T01:38:01;97343.25;;;22.28;100.00
7614;BME280;3848;42.016;23.098;2023-08-21T01:40:28;97346.88;;;22.24;100.00
7614;BME280;3848;42.016;23.098;2023-08-21T01:42:56;97344.38;;;22.23;100.00
7614;BME280;3848;42.016;23.098;2023-08-21T01:45:23;97342.63;;;22.23;100.00
7614;BME280;3848;42.016;23.098;2023-08-21T01:47:50;97342.78;;;22.20;100.00
7614;BME280;3848;42.016;23.098;2023-08-21T01:50:17;97347.13;;;22.19;100.00
7614;BME280;3848;42.016;23.098;2023-08-21T01:52:44;97351.47;;;22.19;100.00
7614;BME280;3848;42.016;23.098;2023-08-21T01:55:11;97354.22;;;22.16;100.00
7614;BME280;3848;42.016;23.098;2023-08-21T01:57:38;97348.19;;;22.15;100.00
7614;BME280;3848;42.016;23.098;2023-08-21T02:00:07;97349.97;;;22.15;100.00
7614;BME280;3848;42.016;23.098;2023-08-21T02:02:34;97350.88;;;22.14;100.00
7614;BME280;3848;42.016;23.098;2023-08-21T02:05:01;97351.78;;;22.13;100.00
7614;BME280;3848;42.016;23.098;2023-08-21T02:07:29;97350.34;;;22.07;100.00
7614;BME280;3848;42.016;23.098;2023-08-21T02:09:56;97340.34;;;22.00;100.00
7614;BME280;3848;42.016;23.098;2023-08-21T02:12:23;97327.78;;;21.92;100.00
7614;BME280;3848;42.016;23.098;2023-08-21T02:14:50;97353.81;;;22.06;100.00
7614;BME280;3848;42.016;23.098;2023-08-21T02:17:18;97345.44;;;22.01;100.00
7614;BME280;3848;42.016;23.098;2023-08-21T02:19:44;97347.75;;;21.90;100.00
7614;BME280;3848;42.016;23.098;2023-08-21T02:22:11;97308.00;;;21.56;100.00
7614;BME280;3848;42.016;23.098;2023-08-21T02:24:38;97351.59;;;21.81;100.00
7614;BME280;3848;42.016;23.098;2023-08-21T02:27:05;97349.16;;;21.78;100.00
7614;BME280;3848;42.016;23.098;2023-08-21T02:29:31;97357.09;;;21.75;100.00
7614;BME280;3848;42.016;23.098;2023-08-21T02:31:58;97349.31;;;21.75;100.00
7614;BME280;3848;42.016;23.098;2023-08-21T02:34:26;97354.97;;;21.66;100.00
7614;BME280;3848;42.016;23.098;2023-08-21T02:36:53;97354.63;;;21.55;100.00
7614;BME280;3848;42.016;23.098;2023-08-21T02:39:20;97354.56;;;21.56;100.00
7614;BME280;3848;42.016;23.098;2023-08-21T02:41:47;97343.38;;;21.56;100.00
7614;BME280;3848;42.016;23.098;2023-08-21T02:44:13;97323.72;;;21.35;100.00
7614;BME280;3848;42.016;23.098;2023-08-21T02:46:40;97353.34;;;21.46;100.00
7614;BME280;3848;42.016;23.098;2023-08-21T02:49:07;97352.94;;;21.37;100.00
7614;BME280;3848;42.016;23.098;2023-08-21T02:51:35;97344.72;;;21.28;100.00
7614;BME280;3848;42.016;23.098;2023-08-21T02:54:02;97324.66;;;21.15;100.00
7614;BME280;3848;42.016;23.098;2023-08-21T02:56:29;97346.53;;;21.26;100.00
7614;BME280;3848;42.016;23.098;2023-08-21T02:58:56;97344.88;;;21.25;100.00
7614;BME280;3848;42.016;23.098;2023-08-21T03:01:22;97349.28;;;21.22;100.00
7614;BME280;3848;42.016;23.098;2023-08-21T03:03:49;97348.59;;;21.18;100.00
7614;BME280;3848;42.016;23.098;2023-08-21T03:06:16;97354.66;;;21.17;100.00
7614;BME280;3848;42.016;23.098;2023-08-21T03:08:44;97350.25;;;21.19;100.00
7614;BME280;3848;42.016;23.098;2023-08-21T03:11:11;97345.41;;;21.13;100.00
7614;BME280;3848;42.016;23.098;2023-08-21T03:13:38;97353.44;;;21.07;100.00
7614;BME280;3848;42.016;23.098;2023-08-21T03:16:04;97350.22;;;21.02;100.00
7614;BME280;3848;42.016;23.098;2023-08-21T03:18:32;97352.94;;;20.99;100.00
7614;BME280;3848;42.016;23.098;2023-08-21T03:20:59;97363.28;;;20.99;100.00
7614;BME280;3848;42.016;23.098;2023-08-21T03:23:25;97370.41;;;20.94;100.00
7614;BME280;3848;42.016;23.098;2023-08-21T03:25:53;97370.69;;;20.88;100.00
7614;BME280;3848;42.016;23.098;2023-08-21T03:28:20;97374.81;;;20.92;100.00
7614;BME280;3848;42.016;23.098;2023-08-21T03:30:47;97372.22;;;20.92;100.00
7614;BME280;3848;42.016;23.098;2023-08-21T03:33:14;97376.47;;;20.93;100.00
7614;BME280;3848;42.016;23.098;2023-08-21T03:35:40;97367.34;;;20.86;100.00
7614;BME280;3848;42.016;23.098;2023-08-21T03:38:07;97372.91;;;20.77;100.00
7614;BME280;3848;42.016;23.098;2023-08-21T03:40:34;97370.53;;;20.72;100.00
7614;BME280;3848;42.016;23.098;2023-08-21T03:43:02;97378.22;;;20.74;100.00
7614;BME280;3848;42.016;23.098;2023-08-21T03:45:29;97378.22;;;20.74;100.00
7614;BME280;3848;42.016;23.098;2023-08-21T03:47:56;97380.72;;;20.75;100.00
7614;BME280;3848;42.016;23.098;2023-08-21T03:50:23;97370.31;;;20.77;100.00
7614;BME280;3848;42.016;23.098;2023-08-21T03:52:49;97382.47;;;20.75;100.00
7614;BME280;3848;42.016;23.098;2023-08-21T03:55:16;97385.81;;;20.77;100.00
7614;BME280;3848;42.016;23.098;2023-08-21T03:57:43;97384.28;;;20.73;100.00
7614;BME280;3848;42.016;23.098;2023-08-21T04:00:12;97384.38;;;20.71;100.00
7614;BME280;3848;42.016;23.098;2023-08-21T04:02:39;97388.84;;;20.67;100.00
7614;BME280;3848;42.016;23.098;2023-08-21T04:05:06;97383.91;;;20.61;100.00
7614;BME280;3848;42.016;23.098;2023-08-21T04:07:33;97386.47;;;20.63;100.00
7614;BME280;3848;42.016;23.098;2023-08-21T04:10:00;97396.78;;;20.63;100.00
7614;BME280;3848;42.016;23.098;2023-08-21T04:12:26;97391.09;;;20.55;100.00
7614;BME280;3848;42.016;23.098;2023-08-21T04:14:54;97399.06;;;20.50;100.00
7614;BME280;3848;42.016;23.098;2023-08-21T04:17:23;97395.69;;;20.48;100.00
7614;BME280;3848;42.016;23.098;2023-08-21T04:19:50;97397.38;;;20.49;100.00
7614;BME280;3848;42.016;23.098;2023-08-21T04:22:16;97382.50;;;20.34;100.00
7614;BME280;3848;42.016;23.098;2023-08-21T04:24:44;97406.31;;;20.42;100.00
7614;BME280;3848;42.016;23.098;2023-08-21T04:27:10;97402.53;;;20.29;100.00
7614;BME280;3848;42.016;23.098;2023-08-21T04:29:38;97404.63;;;20.39;100.00
7614;BME280;3848;42.016;23.098;2023-08-21T04:32:05;97401.97;;;20.43;100.00
7614;BME280;3848;42.016;23.098;2023-08-21T04:34:34;97413.91;;;20.45;100.00
7614;BME280;3848;42.016;23.098;2023-08-21T04:37:00;97405.00;;;20.52;100.00
7614;BME280;3848;42.016;23.098;2023-08-21T04:39:27;97416.56;;;20.44;100.00
7614;BME280;3848;42.016;23.098;2023-08-21T04:41:54;97412.38;;;20.39;100.00
7614;BME280;3848;42.016;23.098;2023-08-21T04:44:21;97419.06;;;20.45;100.00
7614;BME280;3848;42.016;23.098;2023-08-21T04:46:48;97380.56;;;20.19;100.00
7614;BME280;3848;42.016;23.098;2023-08-21T04:49:15;97402.03;;;20.21;100.00
7614;BME280;3848;42.016;23.098;2023-08-21T04:51:44;97384.72;;;20.02;100.00
7614;BME280;3848;42.016;23.098;2023-08-21T04:54:10;97416.06;;;20.34;100.00
7614;BME280;3848;42.016;23.098;2023-08-21T04:56:37;97415.78;;;20.42;100.00
7614;BME280;3848;42.016;23.098;2023-08-21T04:59:04;97410.34;;;20.48;100.00
7614;BME280;3848;42.016;23.098;2023-08-21T05:01:31;97419.84;;;20.47;100.00
7614;BME280;3848;42.016;23.098;2023-08-21T05:03:57;97359.44;;;20.10;100.00
7614;BME280;3848;42.016;23.098;2023-08-21T05:06:24;97413.63;;;20.51;100.00
7614;BME280;3848;42.016;23.098;2023-08-21T05:08:52;97420.19;;;20.58;100.00
7614;BME280;3848;42.016;23.098;2023-08-21T05:11:19;97428.47;;;20.66;100.00
7614;BME280;3848;42.016;23.098;2023-08-21T05:13:46;97417.88;;;20.73;100.00
7614;BME280;3848;42.016;23.098;2023-08-21T05:16:13;97404.88;;;20.74;100.00
7614;BME280;3848;42.016;23.098;2023-08-21T05:18:39;97416.28;;;20.89;100.00
7614;BME280;3848;42.016;23.098;2023-08-21T05:21:07;97374.78;;;20.73;100.00
7614;BME280;3848;42.016;23.098;2023-08-21T05:23:34;97432.44;;;21.13;100.00
7614;BME280;3848;42.016;23.098;2023-08-21T05:26:02;97434.03;;;21.15;100.00
7614;BME280;3848;42.016;23.098;2023-08-21T05:28:29;97433.59;;;21.26;100.00
7614;BME280;3848;42.016;23.098;2023-08-21T05:30:57;97439.94;;;21.38;100.00
7614;BME280;3848;42.016;23.098;2023-08-21T05:33:23;97438.69;;;21.46;100.00
7614;BME280;3848;42.016;23.098;2023-08-21T05:35:50;97435.50;;;21.58;100.00
7614;BME280;3848;42.016;23.098;2023-08-21T05:38:17;97440.25;;;21.68;100.00
7614;BME280;3848;42.016;23.098;2023-08-21T05:40:44;97435.53;;;21.76;100.00
7614;BME280;3848;42.016;23.098;2023-08-21T05:43:12;97441.56;;;21.76;100.00
7614;BME280;3848;42.016;23.098;2023-08-21T05:45:39;97442.81;;;21.86;100.00
7614;BME280;3848;42.016;23.098;2023-08-21T05:48:05;97442.34;;;21.96;100.00
7614;BME280;3848;42.016;23.098;2023-08-21T05:50:32;97439.31;;;22.05;100.00
7614;BME280;3848;42.016;23.098;2023-08-21T05:53:02;97441.25;;;22.18;100.00
7614;BME280;3848;42.016;23.098;2023-08-21T05:55:29;97437.13;;;22.32;100.00
7614;BME280;3848;42.016;23.098;2023-08-21T05:57:56;97434.84;;;22.43;100.00
7614;BME280;3848;42.016;23.098;2023-08-21T06:00:24;97430.03;;;22.52;100.00
7614;BME280;3848;42.016;23.098;2023-08-21T06:02:51;97423.78;;;22.57;100.00
7614;BME280;3848;42.016;23.098;2023-08-21T06:05:17;97429.09;;;22.71;100.00
7614;BME280;3848;42.016;23.098;2023-08-21T06:07:44;97434.50;;;22.84;100.00
7614;BME280;3848;42.016;23.098;2023-08-21T06:10:11;97427.22;;;22.90;100.00
7614;BME280;3848;42.016;23.098;2023-08-21T06:12:40;97432.69;;;23.01;100.00
7614;BME280;3848;42.016;23.098;2023-08-21T06:15:08;97381.81;;;22.83;100.00
7614;BME280;3848;42.016;23.098;2023-08-21T06:17:37;97410.94;;;23.04;100.00
7614;BME280;3848;42.016;23.098;2023-08-21T06:20:05;97420.50;;;23.19;100.00
7614;BME280;3848;42.016;23.098;2023-08-21T06:22:34;97431.81;;;23.34;100.00
7614;BME280;3848;42.016;23.098;2023-08-21T06:25:01;97428.59;;;23.45;100.00
7614;BME280;3848;42.016;23.098;2023-08-21T06:27:27;97416.31;;;23.48;100.00
7614;BME280;3848;42.016;23.098;2023-08-21T06:29:54;97421.59;;;23.62;100.00
7614;BME280;3848;42.016;23.098;2023-08-21T06:32:21;97411.13;;;23.64;100.00
7614;BME280;3848;42.016;23.098;2023-08-21T06:34:49;97421.69;;;23.77;100.00
7614;BME280;3848;42.016;23.098;2023-08-21T06:37:16;97430.50;;;23.88;100.00
7614;BME280;3848;42.016;23.098;2023-08-21T06:39:43;97430.09;;;23.96;100.00
7614;BME280;3848;42.016;23.098;2023-08-21T06:42:09;97409.25;;;23.97;100.00
7614;BME280;3848;42.016;23.098;2023-08-21T06:44:36;97419.00;;;24.08;100.00
7614;BME280;3848;42.016;23.098;2023-08-21T06:47:03;97426.28;;;24.17;100.00
7614;BME280;3848;42.016;23.098;2023-08-21T06:49:30;97426.81;;;24.22;100.00
7614;BME280;3848;42.016;23.098;2023-08-21T06:51:58;97420.88;;;24.20;100.00
7614;BME280;3848;42.016;23.098;2023-08-21T06:54:25;97413.09;;;24.20;100.00
7614;BME280;3848;42.016;23.098;2023-08-21T06:56:52;97413.84;;;24.22;100.00
7614;BME280;3848;42.016;23.098;2023-08-21T06:59:19;97400.66;;;24.25;100.00
7614;BME280;3848;42.016;23.098;2023-08-21T07:01:46;97420.31;;;24.45;100.00
7614;BME280;3848;42.016;23.098;2023-08-21T07:04:13;97404.16;;;24.54;100.00
7614;BME280;3848;42.016;23.098;2023-08-21T07:06:40;97413.47;;;24.73;100.00
7614;BME280;3848;42.016;23.098;2023-08-21T07:09:08;97394.13;;;24.77;100.00
7614;BME280;3848;42.016;23.098;2023-08-21T07:11:35;97401.31;;;24.87;100.00
7614;BME280;3848;42.016;23.098;2023-08-21T07:14:02;97407.38;;;25.02;100.00
7614;BME280;3848;42.016;23.098;2023-08-21T07:16:29;97355.63;;;24.83;99.45
7614;BME280;3848;42.016;23.098;2023-08-21T07:18:55;97407.50;;;25.28;99.79
7614;BME280;3848;42.016;23.098;2023-08-21T07:21:22;97402.44;;;25.39;99.82
7614;BME280;3848;42.016;23.098;2023-08-21T07:23:49;97386.66;;;25.42;100.00
7614;BME280;3848;42.016;23.098;2023-08-21T07:26:18;97395.03;;;25.60;98.25
7614;BME280;3848;42.016;23.098;2023-08-21T07:28:45;97380.56;;;25.56;95.45
7614;BME280;3848;42.016;23.098;2023-08-21T07:31:12;97394.09;;;25.75;98.30
7614;BME280;3848;42.016;23.098;2023-08-21T07:33:39;97393.94;;;25.91;98.59
7614;BME280;3848;42.016;23.098;2023-08-21T07:36:06;97392.09;;;26.05;99.56
7614;BME280;3848;42.016;23.098;2023-08-21T07:38:32;97388.44;;;26.21;93.27
7614;BME280;3848;42.016;23.098;2023-08-21T07:41:04;97381.59;;;26.32;92.13
7614;BME280;3848;42.016;23.098;2023-08-21T07:43:32;97387.75;;;26.44;87.78
7614;BME280;3848;42.016;23.098;2023-08-21T07:46:02;97380.47;;;26.49;87.41
7614;BME280;3848;42.016;23.098;2023-08-21T07:48:29;97376.28;;;26.59;87.25
7614;BME280;3848;42.016;23.098;2023-08-21T07:50:56;97377.00;;;26.74;89.62
7614;BME280;3848;42.016;23.098;2023-08-21T07:53:23;97364.88;;;26.86;90.92
7614;BME280;3848;42.016;23.098;2023-08-21T07:55:51;97339.22;;;26.80;83.00
7614;BME280;3848;42.016;23.098;2023-08-21T07:58:18;97371.03;;;27.10;84.91
7614;BME280;3848;42.016;23.098;2023-08-21T08:00:46;97360.00;;;27.30;80.44
7614;BME280;3848;42.016;23.098;2023-08-21T08:03:14;97340.78;;;27.31;80.87
7614;BME280;3848;42.016;23.098;2023-08-21T08:05:41;97353.94;;;27.54;79.15
7614;BME280;3848;42.016;23.098;2023-08-21T08:08:08;97347.63;;;27.69;77.88
7614;BME280;3848;42.016;23.098;2023-08-21T08:10:37;97337.69;;;27.74;76.30
7614;BME280;3848;42.016;23.098;2023-08-21T08:13:04;97350.09;;;27.94;82.71
7614;BME280;3848;42.016;23.098;2023-08-21T08:15:31;97341.91;;;28.10;74.98
7614;BME280;3848;42.016;23.098;2023-08-21T08:18:01;97331.25;;;28.24;74.35
7614;BME280;3848;42.016;23.098;2023-08-21T08:20:28;97330.47;;;28.35;82.41
7614;BME280;3848;42.016;23.098;2023-08-21T08:22:54;97334.06;;;28.57;86.13
7614;BME280;3848;42.016;23.098;2023-08-21T08:25:22;97327.84;;;28.69;70.64
7614;BME280;3848;42.016;23.098;2023-08-21T08:27:48;97327.03;;;28.91;70.17
7614;BME280;3848;42.016;23.098;2023-08-21T08:30:15;97328.78;;;29.12;66.82
7614;BME280;3848;42.016;23.098;2023-08-21T08:32:42;97320.78;;;29.25;66.58
7614;BME280;3848;42.016;23.098;2023-08-21T08:35:12;97310.97;;;29.38;69.51
7614;BME280;3848;42.016;23.098;2023-08-21T08:37:40;97312.00;;;29.58;64.37
7614;BME280;3848;42.016;23.098;2023-08-21T08:40:08;97301.47;;;29.69;62.50
7614;BME280;3848;42.016;23.098;2023-08-21T08:42:35;97312.47;;;29.84;62.48
7614;BME280;3848;42.016;23.098;2023-08-21T08:45:03;97302.97;;;30.04;77.79
7614;BME280;3848;42.016;23.098;2023-08-21T08:47:31;97298.97;;;30.30;67.85
7614;BME280;3848;42.016;23.098;2023-08-21T08:49:59;97291.31;;;30.48;63.80
7614;BME280;3848;42.016;23.098;2023-08-21T08:52:31;97275.72;;;30.56;61.45
7614;BME280;3848;42.016;23.098;2023-08-21T08:54:59;97286.38;;;30.95;64.05
7614;BME280;3848;42.016;23.098;2023-08-21T08:57:26;97286.84;;;31.19;59.98
7614;BME280;3848;42.016;23.098;2023-08-21T08:59:52;97283.41;;;31.48;60.44
7614;BME280;3848;42.016;23.098;2023-08-21T09:02:19;97269.00;;;31.71;58.61
7614;BME280;3848;42.016;23.098;2023-08-21T09:04:46;97266.09;;;31.94;59.71
7614;BME280;3848;42.016;23.098;2023-08-21T09:07:17;97269.06;;;32.28;56.08
7614;BME280;3848;42.016;23.098;2023-08-21T09:09:47;97259.25;;;32.57;58.08
7614;BME280;3848;42.016;23.098;2023-08-21T09:12:15;97267.00;;;32.86;50.62
7614;BME280;3848;42.016;23.098;2023-08-21T09:14:43;97262.50;;;32.96;51.13
7614;BME280;3848;42.016;23.098;2023-08-21T09:17:10;97241.97;;;33.18;50.36
7614;BME280;3848;42.016;23.098;2023-08-21T09:19:37;97251.38;;;33.56;51.88
7614;BME280;3848;42.016;23.098;2023-08-21T09:22:12;97242.13;;;33.96;47.73
7614;BME280;3848;42.016;23.098;2023-08-21T09:24:39;97242.06;;;34.39;48.11
7614;BME280;3848;42.016;23.098;2023-08-21T09:27:16;97238.56;;;34.81;45.96
7614;BME280;3848;42.016;23.098;2023-08-21T09:29:44;97230.41;;;35.25;46.85
7614;BME280;3848;42.016;23.098;2023-08-21T09:32:12;97199.56;;;35.41;42.64
7614;BME280;3848;42.016;23.098;2023-08-21T09:34:41;97216.53;;;35.88;43.95
7614;BME280;3848;42.016;23.098;2023-08-21T09:37:09;97223.59;;;36.12;42.51
7614;BME280;3848;42.016;23.098;2023-08-21T09:39:37;97207.81;;;36.26;39.37
7614;BME280;3848;42.016;23.098;2023-08-21T09:42:05;97213.34;;;36.56;40.04
7614;BME280;3848;42.016;23.098;2023-08-21T09:44:37;97210.75;;;37.02;41.41
7614;BME280;3848;42.016;23.098;2023-08-21T09:47:07;97205.25;;;37.34;40.65
7614;BME280;3848;42.016;23.098;2023-08-21T09:49:36;97196.81;;;37.68;39.29
7614;BME280;3848;42.016;23.098;2023-08-21T09:52:04;97200.34;;;37.98;36.67
7614;BME280;3848;42.016;23.098;2023-08-21T09:54:33;97192.09;;;38.08;36.55
7614;BME280;3848;42.016;23.098;2023-08-21T09:57:01;97190.34;;;38.44;35.66
7614;BME280;3848;42.016;23.098;2023-08-21T09:59:29;97187.66;;;38.59;34.20
7614;BME280;3848;42.016;23.098;2023-08-21T10:01:58;97167.88;;;38.62;35.84
7614;BME280;3848;42.016;23.098;2023-08-21T10:04:25;97177.16;;;38.87;32.67
7614;BME280;3848;42.016;23.098;2023-08-21T10:06:54;97136.41;;;38.80;32.03
7614;BME280;3848;42.016;23.098;2023-08-21T10:09:23;97161.78;;;39.04;35.06
7614;BME280;3848;42.016;23.098;2023-08-21T10:11:52;97158.31;;;39.25;32.92
7614;BME280;3848;42.016;23.098;2023-08-21T10:14:19;97158.03;;;39.41;32.77
7614;BME280;3848;42.016;23.098;2023-08-21T10:16:47;97151.53;;;39.50;34.28
7614;BME280;3848;42.016;23.098;2023-08-21T10:19:17;97149.84;;;39.71;34.57
7614;BME280;3848;42.016;23.098;2023-08-21T10:21:46;97147.69;;;39.81;31.69
7614;BME280;3848;42.016;23.098;2023-08-21T10:24:26;97124.69;;;39.73;31.40
7614;BME280;3848;42.016;23.098;2023-08-21T10:26:53;97137.88;;;39.88;31.75
7614;BME280;3848;42.016;23.098;2023-08-21T10:29:20;97134.88;;;39.63;31.77
7614;BME280;3848;42.016;23.098;2023-08-21T10:31:58;97131.78;;;38.89;32.78
7614;BME280;3848;42.016;23.098;2023-08-21T10:34:31;97116.91;;;38.37;33.26
7614;BME280;3848;42.016;23.098;2023-08-21T10:37:08;97121.81;;;38.04;32.99
7614;BME280;3848;42.016;23.098;2023-08-21T10:39:52;97126.97;;;37.38;33.62
7614;BME280;3848;42.016;23.098;2023-08-21T10:42:36;97116.38;;;37.68;35.03
7614;BME280;3848;42.016;23.098;2023-08-21T10:45:10;97113.72;;;37.68;34.36
7614;BME280;3848;42.016;23.098;2023-08-21T10:47:37;97108.59;;;37.66;34.30
7614;BME280;3848;42.016;23.098;2023-08-21T10:50:07;97103.91;;;37.91;35.30
7614;BME280;3848;42.016;23.098;2023-08-21T10:52:36;97101.72;;;38.31;34.24
7614;BME280;3848;42.016;23.098;2023-08-21T10:55:05;97081.25;;;38.46;33.71
7614;BME280;3848;42.016;23.098;2023-08-21T10:57:33;97092.72;;;38.68;31.91
7614;BME280;3848;42.016;23.098;2023-08-21T11:00:02;97082.88;;;38.47;31.88
7614;BME280;3848;42.016;23.098;2023-08-21T11:02:31;97088.53;;;38.59;31.59
7614;BME280;3848;42.016;23.098;2023-08-21T11:04:59;97087.31;;;38.76;34.33
7614;BME280;3848;42.016;23.098;2023-08-21T11:07:30;97089.66;;;38.92;31.65
7614;BME280;3848;42.016;23.098;2023-08-21T11:09:57;97076.69;;;39.25;33.15
7614;BME280;3848;42.016;23.098;2023-08-21T11:12:24;97078.94;;;39.28;30.24
7614;BME280;3848;42.016;23.098;2023-08-21T11:14:51;97064.09;;;39.13;30.02
7614;BME280;3848;42.016;23.098;2023-08-21T11:17:18;97063.41;;;39.04;30.81
7614;BME280;3848;42.016;23.098;2023-08-21T11:19:45;97062.03;;;38.87;30.24
7614;BME280;3848;42.016;23.098;2023-08-21T11:22:13;97056.19;;;39.19;30.79
7614;BME280;3848;42.016;23.098;2023-08-21T11:24:43;97066.53;;;39.77;29.89
7614;BME280;3848;42.016;23.098;2023-08-21T11:27:12;97067.53;;;40.10;29.23
7614;BME280;3848;42.016;23.098;2023-08-21T11:29:41;97042.19;;;40.28;30.85
7614;BME280;3848;42.016;23.098;2023-08-21T11:32:09;97058.25;;;40.74;30.50
7614;BME280;3848;42.016;23.098;2023-08-21T11:34:36;97044.56;;;40.84;29.88
7614;BME280;3848;42.016;23.098;2023-08-21T11:37:04;97048.25;;;40.83;30.53
7614;BME280;3848;42.016;23.098;2023-08-21T11:39:47;97050.47;;;41.12;29.67
7614;BME280;3848;42.016;23.098;2023-08-21T11:42:15;97051.69;;;41.16;29.88
7614;BME280;3848;42.016;23.098;2023-08-21T11:44:44;97045.72;;;41.21;29.68
7614;BME280;3848;42.016;23.098;2023-08-21T11:47:11;97047.81;;;41.32;27.98
7614;BME280;3848;42.016;23.098;2023-08-21T11:49:39;97031.78;;;41.38;27.87
7614;BME280;3848;42.016;23.098;2023-08-21T11:52:08;97035.66;;;41.49;27.66
7614;BME280;3848;42.016;23.098;2023-08-21T11:54:36;96988.03;;;41.46;29.38
7614;BME280;3848;42.016;23.098;2023-08-21T11:57:08;97018.78;;;41.68;27.83
7614;BME280;3848;42.016;23.098;2023-08-21T11:59:35;97016.03;;;41.82;28.47
7614;BME280;3848;42.016;23.098;2023-08-21T12:02:09;97021.59;;;41.87;27.28
7614;BME280;3848;42.016;23.098;2023-08-21T12:04:37;97016.19;;;41.93;28.09
7614;BME280;3848;42.016;23.098;2023-08-21T12:07:04;97016.81;;;42.34;27.81
7614;BME280;3848;42.016;23.098;2023-08-21T12:09:31;97007.94;;;42.40;27.76
7614;BME280;3848;42.016;23.098;2023-08-21T12:11:58;97019.22;;;42.42;27.50
7614;BME280;3848;42.016;23.098;2023-08-21T12:14:27;97004.25;;;42.66;26.87
7614;BME280;3848;42.016;23.098;2023-08-21T12:16:55;97013.03;;;42.48;26.81
7614;BME280;3848;42.016;23.098;2023-08-21T12:19:22;97006.69;;;42.11;26.87
7614;BME280;3848;42.016;23.098;2023-08-21T12:21:50;97000.97;;;42.07;27.10
7614;BME280;3848;42.016;23.098;2023-08-21T12:24:17;96998.97;;;41.83;26.70
7614;BME280;3848;42.016;23.098;2023-08-21T12:26:44;96997.00;;;41.71;26.67
7614;BME280;3848;42.016;23.098;2023-08-21T12:29:10;97005.94;;;41.90;27.12
7614;BME280;3848;42.016;23.098;2023-08-21T12:31:39;96993.91;;;42.06;26.46
7614;BME280;3848;42.016;23.098;2023-08-21T12:34:06;96986.44;;;41.90;25.94
7614;BME280;3848;42.016;23.098;2023-08-21T12:36:34;96992.75;;;41.44;26.59
7614;BME280;3848;42.016;23.098;2023-08-21T12:39:02;96985.84;;;41.10;27.90
7614;BME280;3848;42.016;23.098;2023-08-21T12:41:29;96976.63;;;41.12;28.07
7614;BME280;3848;42.016;23.098;2023-08-21T12:43:56;96987.44;;;41.37;28.07
7614;BME280;3848;42.016;23.098;2023-08-21T12:46:23;96975.69;;;41.65;28.65
7614;BME280;3848;42.016;23.098;2023-08-21T12:48:53;96970.97;;;41.98;27.69
7614;BME280;3848;42.016;23.098;2023-08-21T12:51:20;96985.03;;;41.87;26.21
7614;BME280;3848;42.016;23.098;2023-08-21T12:53:47;96977.09;;;41.67;27.47
7614;BME280;3848;42.016;23.098;2023-08-21T12:56:14;96996.28;;;41.31;26.89
7614;BME280;3848;42.016;23.098;2023-08-21T12:58:41;97001.66;;;40.98;26.93
7614;BME280;3848;42.016;23.098;2023-08-21T13:01:08;96999.63;;;40.47;28.04
7614;BME280;3848;42.016;23.098;2023-08-21T13:03:35;96987.28;;;39.59;28.90
7614;BME280;3848;42.016;23.098;2023-08-21T13:06:03;97022.41;;;38.92;30.48
7614;BME280;3848;42.016;23.098;2023-08-21T13:08:30;97029.09;;;38.38;32.90